MRPVMRLM

Guest
Details From MRPV - TOBIAS BOLANOS INTL
To MRLM - LIMON INTL
Flight Number -
Tags generated
Created
Modified
Stats Distance 66 nm / 123 km
Max Altitude 13,000 ft / 3,962 m
Waypoints 4
Social Downloads 2
Likes 0
Share VATSIM

Download

Looking for another format? Having issues loading an existing format? Contact us
Advertisement - Login to hide

Notes

Basic altitude profile: - Ascent Rate: 2500ft/min - Ascent Speed: 250kts - Cruise Altitude: 35000ft - Cruise Speed: 420kts - Descent Rate: 1500ft/min - Descent Speed: 250kts Options: - Use NATs: yes - Use PACOTS: yes - Use low airways: yes - Use high airways: yes

Route

MRPV CLARA B690 LIO MRLM

ID Type Via Altitude (ft/m) Position (lat/lon) Dist (leg/tot) Name
O MRPV APT - 0 / 0 9.95705 / -84.13980 - / 0 nm TOBIAS BOLANOS INTL
CLARA FIX - 8,700 / 2,652 9.97544 / -83.72392 24 / 24 nm
LIO VOR B690 (AWY-LO) 13,000 / 3,962 9.96314 / -83.02717 41 / 65 nm LIMON VOR-DME
O MRLM APT - 0 / 0 9.95796 / -83.02201 0 / 66 nm LIMON INTL

Altitude Profile

Advertisement - Login to hide

MRPV

Details ICAO MRPV (SYQ)
Name TOBIAS BOLANOS INTL
Region Costa Rica
Timezone America/Costa_Rica (UTC-6.0)
Stats Elevation 3,287 ft / 1,002 m (AMSL)
Location 9.957050° -84.139800°
Runways 1
Magnetic Variation 1.961° W

METAR

Not found

TAF

TAF TAF MRPV 192300Z 2000/2024 30007KT 9999 BKN020 TX28/2017Z TN18/2010Z TEMPO 2000/2004 5000 RA BR BKN015 TEMPO 2006/2016 12008KT TEMPO 2020/2024 5000 SHRA SCT020TCU

Decode

Departure Runways

ID Width Length Bearing (true/mag) Surface Threshold Overrun Markings Lighting
09 60 ft / 18 m 5,304 ft / 1,617 m 95.09° / 97.05° ASPHALT 200 ft / 61 m 0 ft / 0 m APP
27 60 ft / 18 m 5,304 ft / 1,617 m 275.10° / 277.06° ASPHALT 0 ft / 0 m 0 ft / 0 m APP

MRLM

Details ICAO MRLM (LIO)
Name Limon Int'l
Region Costa Rica
Timezone Unknown
Stats Elevation 7 ft / 2 m (AMSL)
Location 9.957960° -83.022000°
Runways 1
Magnetic Variation 2.631° W

METAR

Not found

TAF

MRLM 192300Z 2000/2024 11006KT 9999 SCT020 TX31/2019Z TN23/2011Z TEMPO 2000/2004 RA BKN020 BECMG 2002/2005 25005KT BECMG 2015/2018 05006KT

Decode

Destination Runways

ID Width Length Bearing (true/mag) Surface Threshold Overrun Markings Lighting
14 98 ft / 30 m 5,911 ft / 1,802 m 146.50° / 149.13° ASPHALT 0 ft / 0 m 0 ft / 0 m VISUAL EDGE THRESHOLD
32 98 ft / 30 m 5,911 ft / 1,802 m 326.50° / 329.13° ASPHALT 0 ft / 0 m 0 ft / 0 m VISUAL EDGE THRESHOLD

Popular Alternatives